sensor_id;sensor_type;location;lat;lon;timestamp;P1;durP1;ratioP1;P2;durP2;ratioP2
37931;SDS011;23758;42.640;23.302;2023-05-19T00:01:45;2.97;;;2.78;;
37931;SDS011;23758;42.640;23.302;2023-05-19T00:04:14;2.80;;;2.60;;
37931;SDS011;23758;42.640;23.302;2023-05-19T00:06:40;3.03;;;2.83;;
37931;SDS011;23758;42.640;23.302;2023-05-19T00:09:08;2.83;;;2.63;;
37931;SDS011;23758;42.640;23.302;2023-05-19T00:11:35;2.97;;;2.78;;
37931;SDS011;23758;42.640;23.302;2023-05-19T00:14:02;2.92;;;2.72;;
37931;SDS011;23758;42.640;23.302;2023-05-19T00:16:29;2.95;;;2.75;;
37931;SDS011;23758;42.640;23.302;2023-05-19T00:18:58;2.90;;;2.70;;
37931;SDS011;23758;42.640;23.302;2023-05-19T00:21:25;3.00;;;2.80;;
37931;SDS011;23758;42.640;23.302;2023-05-19T00:23:51;3.00;;;2.80;;
37931;SDS011;23758;42.640;23.302;2023-05-19T00:26:17;3.10;;;2.90;;
37931;SDS011;23758;42.640;23.302;2023-05-19T00:28:42;3.10;;;2.90;;
37931;SDS011;23758;42.640;23.302;2023-05-19T00:31:08;2.90;;;2.70;;
37931;SDS011;23758;42.640;23.302;2023-05-19T00:33:33;2.92;;;2.72;;
37931;SDS011;23758;42.640;23.302;2023-05-19T00:36:02;3.08;;;2.88;;
37931;SDS011;23758;42.640;23.302;2023-05-19T00:38:29;2.80;;;2.60;;
37931;SDS011;23758;42.640;23.302;2023-05-19T00:40:55;2.80;;;2.60;;
37931;SDS011;23758;42.640;23.302;2023-05-19T00:43:21;2.90;;;2.70;;
37931;SDS011;23758;42.640;23.302;2023-05-19T00:45:46;3.65;;;3.00;;
37931;SDS011;23758;42.640;23.302;2023-05-19T00:48:12;3.30;;;3.10;;
37931;SDS011;23758;42.640;23.302;2023-05-19T00:50:37;2.70;;;2.50;;
37931;SDS011;23758;42.640;23.302;2023-05-19T00:53:04;2.42;;;2.33;;
37931;SDS011;23758;42.640;23.302;2023-05-19T00:55:29;2.60;;;2.40;;
37931;SDS011;23758;42.640;23.302;2023-05-19T00:57:56;2.90;;;2.70;;
37931;SDS011;23758;42.640;23.302;2023-05-19T01:00:21;2.60;;;2.40;;
37931;SDS011;23758;42.640;23.302;2023-05-19T01:02:47;2.53;;;2.40;;
37931;SDS011;23758;42.640;23.302;2023-05-19T01:05:14;2.45;;;2.33;;
37931;SDS011;23758;42.640;23.302;2023-05-19T01:07:40;2.72;;;2.53;;
37931;SDS011;23758;42.640;23.302;2023-05-19T01:10:06;2.60;;;2.40;;
37931;SDS011;23758;42.640;23.302;2023-05-19T01:12:32;2.67;;;2.47;;
37931;SDS011;23758;42.640;23.302;2023-05-19T01:14:58;2.70;;;2.50;;
37931;SDS011;23758;42.640;23.302;2023-05-19T01:20:23;2.63;;;2.42;;
37931;SDS011;23758;42.640;23.302;2023-05-19T01:31:43;2.80;;;2.60;;
37931;SDS011;23758;42.640;23.302;2023-05-19T01:34:11;2.80;;;2.60;;
37931;SDS011;23758;42.640;23.302;2023-05-19T01:36:37;3.08;;;2.88;;
37931;SDS011;23758;42.640;23.302;2023-05-19T01:39:03;3.00;;;2.80;;
37931;SDS011;23758;42.640;23.302;2023-05-19T01:41:28;2.85;;;2.65;;
37931;SDS011;23758;42.640;23.302;2023-05-19T01:43:56;2.95;;;2.75;;
37931;SDS011;23758;42.640;23.302;2023-05-19T01:46:22;2.72;;;2.53;;
37931;SDS011;23758;42.640;23.302;2023-05-19T01:48:48;2.88;;;2.67;;
37931;SDS011;23758;42.640;23.302;2023-05-19T01:51:14;2.95;;;2.75;;
37931;SDS011;23758;42.640;23.302;2023-05-19T01:53:39;2.97;;;2.78;;
37931;SDS011;23758;42.640;23.302;2023-05-19T01:56:05;2.80;;;2.60;;
37931;SDS011;23758;42.640;23.302;2023-05-19T01:58:37;3.10;;;2.90;;
37931;SDS011;23758;42.640;23.302;2023-05-19T02:06:48;2.72;;;2.53;;
37931;SDS011;23758;42.640;23.302;2023-05-19T02:09:22;2.90;;;2.70;;
37931;SDS011;23758;42.640;23.302;2023-05-19T02:11:53;2.80;;;2.60;;
37931;SDS011;23758;42.640;23.302;2023-05-19T02:16:55;3.03;;;2.83;;
37931;SDS011;23758;42.640;23.302;2023-05-19T02:19:39;2.75;;;2.55;;
37931;SDS011;23758;42.640;23.302;2023-05-19T02:22:05;3.10;;;2.90;;
37931;SDS011;23758;42.640;23.302;2023-05-19T02:24:31;3.00;;;2.80;;
37931;SDS011;23758;42.640;23.302;2023-05-19T02:26:56;2.78;;;2.58;;
37931;SDS011;23758;42.640;23.302;2023-05-19T02:29:22;2.80;;;2.60;;
37931;SDS011;23758;42.640;23.302;2023-05-19T02:31:47;2.83;;;2.63;;
37931;SDS011;23758;42.640;23.302;2023-05-19T02:34:13;3.28;;;3.03;;
37931;SDS011;23758;42.640;23.302;2023-05-19T02:36:39;3.05;;;2.85;;
37931;SDS011;23758;42.640;23.302;2023-05-19T02:39:07;3.15;;;2.95;;
37931;SDS011;23758;42.640;23.302;2023-05-19T02:41:33;3.20;;;2.97;;
37931;SDS011;23758;42.640;23.302;2023-05-19T02:43:59;2.88;;;2.67;;
37931;SDS011;23758;42.640;23.302;2023-05-19T02:46:24;3.00;;;2.80;;
37931;SDS011;23758;42.640;23.302;2023-05-19T02:48:50;3.40;;;3.10;;
37931;SDS011;23758;42.640;23.302;2023-05-19T02:51:16;2.85;;;2.65;;
37931;SDS011;23758;42.640;23.302;2023-05-19T02:53:42;3.00;;;2.80;;
37931;SDS011;23758;42.640;23.302;2023-05-19T02:56:07;3.05;;;2.85;;
37931;SDS011;23758;42.640;23.302;2023-05-19T02:58:32;3.00;;;2.80;;
37931;SDS011;23758;42.640;23.302;2023-05-19T03:00:58;3.00;;;2.80;;
37931;SDS011;23758;42.640;23.302;2023-05-19T03:03:23;3.17;;;2.92;;
37931;SDS011;23758;42.640;23.302;2023-05-19T03:05:49;3.10;;;2.90;;
37931;SDS011;23758;42.640;23.302;2023-05-19T03:08:15;2.95;;;2.75;;
37931;SDS011;23758;42.640;23.302;2023-05-19T03:10:40;3.47;;;3.20;;
37931;SDS011;23758;42.640;23.302;2023-05-19T03:13:06;3.50;;;3.30;;
37931;SDS011;23758;42.640;23.302;2023-05-19T03:15:33;3.28;;;3.08;;
37931;SDS011;23758;42.640;23.302;2023-05-19T03:17:59;3.10;;;2.90;;
37931;SDS011;23758;42.640;23.302;2023-05-19T03:20:24;3.40;;;3.17;;
37931;SDS011;23758;42.640;23.302;2023-05-19T03:22:50;3.13;;;2.92;;
37931;SDS011;23758;42.640;23.302;2023-05-19T03:25:15;3.20;;;3.00;;
37931;SDS011;23758;42.640;23.302;2023-05-19T03:27:41;2.90;;;2.70;;
37931;SDS011;23758;42.640;23.302;2023-05-19T03:30:07;2.90;;;2.70;;
37931;SDS011;23758;42.640;23.302;2023-05-19T03:32:33;3.20;;;3.00;;
37931;SDS011;23758;42.640;23.302;2023-05-19T03:35:01;3.17;;;2.97;;
37931;SDS011;23758;42.640;23.302;2023-05-19T03:37:28;3.05;;;2.85;;
37931;SDS011;23758;42.640;23.302;2023-05-19T03:39:53;3.08;;;2.88;;
37931;SDS011;23758;42.640;23.302;2023-05-19T03:42:19;3.40;;;3.10;;
37931;SDS011;23758;42.640;23.302;2023-05-19T03:44:44;2.97;;;2.78;;
37931;SDS011;23758;42.640;23.302;2023-05-19T03:47:10;2.90;;;2.70;;
37931;SDS011;23758;42.640;23.302;2023-05-19T03:49:35;3.08;;;2.85;;
37931;SDS011;23758;42.640;23.302;2023-05-19T03:52:01;2.80;;;2.60;;
37931;SDS011;23758;42.640;23.302;2023-05-19T03:54:27;3.17;;;2.97;;
37931;SDS011;23758;42.640;23.302;2023-05-19T03:56:52;3.00;;;2.80;;
37931;SDS011;23758;42.640;23.302;2023-05-19T03:59:18;3.00;;;2.80;;
37931;SDS011;23758;42.640;23.302;2023-05-19T04:01:43;2.65;;;2.45;;
37931;SDS011;23758;42.640;23.302;2023-05-19T04:04:10;2.72;;;2.53;;
37931;SDS011;23758;42.640;23.302;2023-05-19T04:06:36;3.22;;;3.03;;
37931;SDS011;23758;42.640;23.302;2023-05-19T04:09:02;2.40;;;2.30;;
37931;SDS011;23758;42.640;23.302;2023-05-19T04:11:29;2.78;;;2.58;;
37931;SDS011;23758;42.640;23.302;2023-05-19T04:13:54;2.40;;;2.30;;
37931;SDS011;23758;42.640;23.302;2023-05-19T04:16:20;2.60;;;2.40;;
37931;SDS011;23758;42.640;23.302;2023-05-19T04:18:45;2.92;;;2.72;;
37931;SDS011;23758;42.640;23.302;2023-05-19T04:21:11;2.92;;;2.72;;
37931;SDS011;23758;42.640;23.302;2023-05-19T04:23:36;2.30;;;2.20;;
37931;SDS011;23758;42.640;23.302;2023-05-19T04:26:02;2.47;;;2.38;;
37931;SDS011;23758;42.640;23.302;2023-05-19T04:28:30;2.60;;;2.40;;
37931;SDS011;23758;42.640;23.302;2023-05-19T04:30:57;2.90;;;2.70;;
37931;SDS011;23758;42.640;23.302;2023-05-19T04:33:24;2.60;;;2.40;;
37931;SDS011;23758;42.640;23.302;2023-05-19T04:35:49;3.92;;;3.17;;
37931;SDS011;23758;42.640;23.302;2023-05-19T04:38:15;2.80;;;2.60;;
37931;SDS011;23758;42.640;23.302;2023-05-19T04:40:42;2.90;;;2.70;;
37931;SDS011;23758;42.640;23.302;2023-05-19T04:43:08;2.67;;;2.47;;
37931;SDS011;23758;42.640;23.302;2023-05-19T04:45:35;2.50;;;2.40;;
37931;SDS011;23758;42.640;23.302;2023-05-19T04:48:01;2.38;;;2.17;;
37931;SDS011;23758;42.640;23.302;2023-05-19T04:50:27;2.20;;;2.10;;
37931;SDS011;23758;42.640;23.302;2023-05-19T04:52:54;2.10;;;2.00;;
37931;SDS011;23758;42.640;23.302;2023-05-19T04:55:20;2.15;;;2.05;;
37931;SDS011;23758;42.640;23.302;2023-05-19T04:57:46;2.22;;;2.13;;
37931;SDS011;23758;42.640;23.302;2023-05-19T05:00:11;2.10;;;2.00;;
37931;SDS011;23758;42.640;23.302;2023-05-19T05:02:38;1.95;;;1.85;;
37931;SDS011;23758;42.640;23.302;2023-05-19T05:05:03;2.30;;;2.10;;
37931;SDS011;23758;42.640;23.302;2023-05-19T05:07:29;2.60;;;2.40;;
37931;SDS011;23758;42.640;23.302;2023-05-19T05:09:55;1.90;;;1.80;;
37931;SDS011;23758;42.640;23.302;2023-05-19T05:12:21;2.10;;;2.00;;
37931;SDS011;23758;42.640;23.302;2023-05-19T05:14:46;1.92;;;1.83;;
37931;SDS011;23758;42.640;23.302;2023-05-19T05:17:12;2.03;;;1.92;;
37931;SDS011;23758;42.640;23.302;2023-05-19T05:19:38;2.17;;;2.08;;
37931;SDS011;23758;42.640;23.302;2023-05-19T05:22:04;2.15;;;2.05;;
37931;SDS011;23758;42.640;23.302;2023-05-19T05:24:30;2.20;;;2.10;;
37931;SDS011;23758;42.640;23.302;2023-05-19T05:26:56;2.20;;;2.10;;
37931;SDS011;23758;42.640;23.302;2023-05-19T05:29:23;2.10;;;2.00;;
37931;SDS011;23758;42.640;23.302;2023-05-19T05:31:48;2.00;;;1.90;;
37931;SDS011;23758;42.640;23.302;2023-05-19T05:34:14;2.10;;;2.00;;
37931;SDS011;23758;42.640;23.302;2023-05-19T05:36:40;2.35;;;2.22;;
37931;SDS011;23758;42.640;23.302;2023-05-19T05:39:05;2.25;;;2.10;;
37931;SDS011;23758;42.640;23.302;2023-05-19T05:41:30;2.10;;;2.00;;
37931;SDS011;23758;42.640;23.302;2023-05-19T05:44:02;2.40;;;2.20;;
37931;SDS011;23758;42.640;23.302;2023-05-19T05:46:28;2.03;;;1.92;;
37931;SDS011;23758;42.640;23.302;2023-05-19T05:48:53;2.38;;;2.17;;
37931;SDS011;23758;42.640;23.302;2023-05-19T05:51:22;2.30;;;2.17;;
37931;SDS011;23758;42.640;23.302;2023-05-19T05:53:52;2.30;;;2.20;;
37931;SDS011;23758;42.640;23.302;2023-05-19T05:56:18;2.35;;;2.17;;
37931;SDS011;23758;42.640;23.302;2023-05-19T05:58:45;2.35;;;2.25;;
37931;SDS011;23758;42.640;23.302;2023-05-19T06:01:11;2.30;;;2.20;;
37931;SDS011;23758;42.640;23.302;2023-05-19T06:03:40;2.33;;;2.22;;
37931;SDS011;23758;42.640;23.302;2023-05-19T06:06:06;2.22;;;2.13;;
37931;SDS011;23758;42.640;23.302;2023-05-19T06:08:32;2.53;;;2.33;;
37931;SDS011;23758;42.640;23.302;2023-05-19T06:10:58;2.60;;;2.40;;
37931;SDS011;23758;42.640;23.302;2023-05-19T06:13:23;2.33;;;2.20;;
37931;SDS011;23758;42.640;23.302;2023-05-19T06:15:50;2.50;;;2.30;;
37931;SDS011;23758;42.640;23.302;2023-05-19T06:18:16;2.40;;;2.30;;
37931;SDS011;23758;42.640;23.302;2023-05-19T06:20:41;2.28;;;2.17;;
37931;SDS011;23758;42.640;23.302;2023-05-19T06:23:07;2.80;;;2.60;;
37931;SDS011;23758;42.640;23.302;2023-05-19T06:25:32;2.80;;;2.60;;
37931;SDS011;23758;42.640;23.302;2023-05-19T06:27:58;2.28;;;2.17;;
37931;SDS011;23758;42.640;23.302;2023-05-19T06:30:23;2.75;;;2.55;;
37931;SDS011;23758;42.640;23.302;2023-05-19T06:32:49;2.17;;;2.08;;
37931;SDS011;23758;42.640;23.302;2023-05-19T06:35:14;2.78;;;2.58;;
37931;SDS011;23758;42.640;23.302;2023-05-19T06:37:40;2.30;;;2.20;;
37931;SDS011;23758;42.640;23.302;2023-05-19T06:40:06;2.13;;;2.03;;
37931;SDS011;23758;42.640;23.302;2023-05-19T06:42:32;2.00;;;1.90;;
37931;SDS011;23758;42.640;23.302;2023-05-19T06:44:57;2.15;;;2.05;;
37931;SDS011;23758;42.640;23.302;2023-05-19T06:47:23;2.25;;;2.15;;
37931;SDS011;23758;42.640;23.302;2023-05-19T06:49:48;2.20;;;2.10;;
37931;SDS011;23758;42.640;23.302;2023-05-19T06:52:20;2.25;;;2.10;;
37931;SDS011;23758;42.640;23.302;2023-05-19T06:54:47;2.30;;;2.20;;
37931;SDS011;23758;42.640;23.302;2023-05-19T06:57:12;2.20;;;2.10;;
37931;SDS011;23758;42.640;23.302;2023-05-19T06:59:38;2.42;;;2.30;;
37931;SDS011;23758;42.640;23.302;2023-05-19T07:02:06;2.20;;;2.10;;
37931;SDS011;23758;42.640;23.302;2023-05-19T07:04:32;2.30;;;2.20;;
37931;SDS011;23758;42.640;23.302;2023-05-19T07:06:57;2.40;;;2.20;;
37931;SDS011;23758;42.640;23.302;2023-05-19T07:09:22;2.10;;;2.00;;
37931;SDS011;23758;42.640;23.302;2023-05-19T07:11:48;2.20;;;2.10;;
37931;SDS011;23758;42.640;23.302;2023-05-19T07:14:14;2.30;;;2.20;;
37931;SDS011;23758;42.640;23.302;2023-05-19T07:16:39;2.00;;;1.90;;
37931;SDS011;23758;42.640;23.302;2023-05-19T07:19:05;2.40;;;2.25;;
37931;SDS011;23758;42.640;23.302;2023-05-19T07:21:30;2.40;;;2.20;;
37931;SDS011;23758;42.640;23.302;2023-05-19T07:23:56;2.35;;;2.25;;
37931;SDS011;23758;42.640;23.302;2023-05-19T07:26:21;2.50;;;2.30;;
37931;SDS011;23758;42.640;23.302;2023-05-19T07:28:47;3.97;;;2.50;;
37931;SDS011;23758;42.640;23.302;2023-05-19T07:31:13;2.30;;;2.20;;
37931;SDS011;23758;42.640;23.302;2023-05-19T07:33:39;2.80;;;2.60;;
37931;SDS011;23758;42.640;23.302;2023-05-19T07:36:04;2.85;;;2.35;;
37931;SDS011;23758;42.640;23.302;2023-05-19T07:38:30;4.45;;;2.67;;
37931;SDS011;23758;42.640;23.302;2023-05-19T07:40:58;2.55;;;2.38;;
37931;SDS011;23758;42.640;23.302;2023-05-19T07:43:24;4.45;;;3.05;;
37931;SDS011;23758;42.640;23.302;2023-05-19T07:45:50;2.95;;;2.75;;
37931;SDS011;23758;42.640;23.302;2023-05-19T07:48:17;2.70;;;2.50;;
37931;SDS011;23758;42.640;23.302;2023-05-19T07:50:46;2.70;;;2.50;;
37931;SDS011;23758;42.640;23.302;2023-05-19T07:53:12;2.78;;;2.58;;
37931;SDS011;23758;42.640;23.302;2023-05-19T07:55:38;2.70;;;2.50;;
37931;SDS011;23758;42.640;23.302;2023-05-19T07:58:03;2.95;;;2.75;;
37931;SDS011;23758;42.640;23.302;2023-05-19T08:00:29;2.60;;;2.40;;
37931;SDS011;23758;42.640;23.302;2023-05-19T08:02:54;3.67;;;2.50;;
37931;SDS011;23758;42.640;23.302;2023-05-19T08:05:21;2.72;;;2.53;;
37931;SDS011;23758;42.640;23.302;2023-05-19T08:07:47;2.50;;;2.30;;
37931;SDS011;23758;42.640;23.302;2023-05-19T08:10:12;2.70;;;2.50;;
37931;SDS011;23758;42.640;23.302;2023-05-19T08:12:38;2.20;;;2.10;;
37931;SDS011;23758;42.640;23.302;2023-05-19T08:15:04;2.42;;;2.10;;
37931;SDS011;23758;42.640;23.302;2023-05-19T08:17:30;2.10;;;2.00;;
37931;SDS011;23758;42.640;23.302;2023-05-19T08:19:55;1.85;;;1.75;;
37931;SDS011;23758;42.640;23.302;2023-05-19T08:22:21;2.03;;;1.92;;
37931;SDS011;23758;42.640;23.302;2023-05-19T08:24:46;2.22;;;2.13;;
37931;SDS011;23758;42.640;23.302;2023-05-19T08:27:14;1.92;;;1.83;;
37931;SDS011;23758;42.640;23.302;2023-05-19T08:29:40;2.15;;;2.05;;
37931;SDS011;23758;42.640;23.302;2023-05-19T08:32:06;2.78;;;2.17;;
37931;SDS011;23758;42.640;23.302;2023-05-19T08:34:32;2.42;;;2.22;;
37931;SDS011;23758;42.640;23.302;2023-05-19T08:36:58;2.00;;;1.90;;
37931;SDS011;23758;42.640;23.302;2023-05-19T08:39:23;2.35;;;2.25;;
37931;SDS011;23758;42.640;23.302;2023-05-19T08:41:51;2.00;;;1.90;;
37931;SDS011;23758;42.640;23.302;2023-05-19T08:44:17;2.42;;;2.22;;
37931;SDS011;23758;42.640;23.302;2023-05-19T08:46:43;2.30;;;2.10;;
37931;SDS011;23758;42.640;23.302;2023-05-19T08:49:10;2.38;;;2.20;;
37931;SDS011;23758;42.640;23.302;2023-05-19T08:51:46;2.42;;;2.22;;
37931;SDS011;23758;42.640;23.302;2023-05-19T08:54:17;2.03;;;1.92;;
37931;SDS011;23758;42.640;23.302;2023-05-19T08:56:44;2.15;;;2.05;;
37931;SDS011;23758;42.640;23.302;2023-05-19T08:59:11;2.40;;;2.20;;
37931;SDS011;23758;42.640;23.302;2023-05-19T09:01:39;2.60;;;2.40;;
37931;SDS011;23758;42.640;23.302;2023-05-19T09:04:07;3.95;;;2.60;;
37931;SDS011;23758;42.640;23.302;2023-05-19T09:06:32;2.50;;;2.30;;
37931;SDS011;23758;42.640;23.302;2023-05-19T09:08:58;2.33;;;2.20;;
37931;SDS011;23758;42.640;23.302;2023-05-19T09:11:24;2.40;;;2.20;;
37931;SDS011;23758;42.640;23.302;2023-05-19T09:13:50;2.22;;;2.13;;
37931;SDS011;23758;42.640;23.302;2023-05-19T09:16:15;2.92;;;2.72;;
37931;SDS011;23758;42.640;23.302;2023-05-19T09:18:52;2.83;;;2.63;;
37931;SDS011;23758;42.640;23.302;2023-05-19T09:21:21;2.85;;;2.65;;
37931;SDS011;23758;42.640;23.302;2023-05-19T09:23:51;3.00;;;2.80;;
37931;SDS011;23758;42.640;23.302;2023-05-19T09:26:20;2.50;;;2.33;;
37931;SDS011;23758;42.640;23.302;2023-05-19T09:28:47;2.30;;;2.20;;
37931;SDS011;23758;42.640;23.302;2023-05-19T09:31:13;2.88;;;2.67;;
37931;SDS011;23758;42.640;23.302;2023-05-19T09:33:39;3.45;;;2.90;;
37931;SDS011;23758;42.640;23.302;2023-05-19T09:36:09;3.22;;;2.42;;
37931;SDS011;23758;42.640;23.302;2023-05-19T09:38:35;2.90;;;2.70;;
37931;SDS011;23758;42.640;23.302;2023-05-19T09:41:02;3.20;;;3.00;;
37931;SDS011;23758;42.640;23.302;2023-05-19T09:43:28;3.50;;;3.20;;
37931;SDS011;23758;42.640;23.302;2023-05-19T09:46:07;3.28;;;3.08;;
37931;SDS011;23758;42.640;23.302;2023-05-19T09:48:35;3.25;;;2.97;;
37931;SDS011;23758;42.640;23.302;2023-05-19T09:51:01;3.20;;;3.00;;
37931;SDS011;23758;42.640;23.302;2023-05-19T09:53:28;3.35;;;3.15;;
37931;SDS011;23758;42.640;23.302;2023-05-19T09:55:55;4.13;;;3.72;;
37931;SDS011;23758;42.640;23.302;2023-05-19T09:58:24;3.50;;;3.20;;
37931;SDS011;23758;42.640;23.302;2023-05-19T10:00:50;3.50;;;3.30;;
37931;SDS011;23758;42.640;23.302;2023-05-19T10:03:16;3.20;;;3.00;;
37931;SDS011;23758;42.640;23.302;2023-05-19T10:05:43;3.33;;;3.13;;
37931;SDS011;23758;42.640;23.302;2023-05-19T10:08:09;3.13;;;2.92;;
37931;SDS011;23758;42.640;23.302;2023-05-19T10:10:36;2.90;;;2.70;;
37931;SDS011;23758;42.640;23.302;2023-05-19T10:13:02;3.03;;;2.83;;
37931;SDS011;23758;42.640;23.302;2023-05-19T10:15:28;2.83;;;2.63;;
37931;SDS011;23758;42.640;23.302;2023-05-19T10:17:54;3.28;;;3.05;;
37931;SDS011;23758;42.640;23.302;2023-05-19T10:20:20;3.05;;;2.85;;
37931;SDS011;23758;42.640;23.302;2023-05-19T10:22:46;2.83;;;2.63;;
37931;SDS011;23758;42.640;23.302;2023-05-19T10:25:13;4.00;;;3.10;;
37931;SDS011;23758;42.640;23.302;2023-05-19T10:27:47;3.42;;;3.22;;
37931;SDS011;23758;42.640;23.302;2023-05-19T10:30:25;3.17;;;2.97;;
37931;SDS011;23758;42.640;23.302;2023-05-19T10:32:53;2.70;;;2.50;;
37931;SDS011;23758;42.640;23.302;2023-05-19T10:46:42;2.67;;;2.47;;
37931;SDS011;23758;42.640;23.302;2023-05-19T10:49:07;2.85;;;2.65;;
37931;SDS011;23758;42.640;23.302;2023-05-19T10:51:33;2.92;;;2.72;;
37931;SDS011;23758;42.640;23.302;2023-05-19T10:54:06;3.10;;;2.80;;
37931;SDS011;23758;42.640;23.302;2023-05-19T10:56:38;2.75;;;2.55;;
37931;SDS011;23758;42.640;23.302;2023-05-19T10:59:06;2.70;;;2.50;;
37931;SDS011;23758;42.640;23.302;2023-05-19T11:01:32;2.58;;;2.38;;
37931;SDS011;23758;42.640;23.302;2023-05-19T11:04:08;2.55;;;2.38;;
37931;SDS011;23758;42.640;23.302;2023-05-19T11:06:39;3.25;;;3.05;;
37931;SDS011;23758;42.640;23.302;2023-05-19T11:14:10;2.50;;;2.33;;
37931;SDS011;23758;42.640;23.302;2023-05-19T11:16:38;2.97;;;2.72;;
37931;SDS011;23758;42.640;23.302;2023-05-19T11:19:05;2.70;;;2.50;;
37931;SDS011;23758;42.640;23.302;2023-05-19T11:22:32;4.03;;;2.47;;
37931;SDS011;23758;42.640;23.302;2023-05-19T11:24:45;2.40;;;2.20;;
37931;SDS011;23758;42.640;23.302;2023-05-19T11:27:17;2.43;;;2.27;;
37931;SDS011;23758;42.640;23.302;2023-05-19T11:29:51;2.65;;;2.38;;
37931;SDS011;23758;42.640;23.302;2023-05-19T11:32:21;1.95;;;1.85;;
37931;SDS011;23758;42.640;23.302;2023-05-19T11:34:49;1.60;;;1.50;;
37931;SDS011;23758;42.640;23.302;2023-05-19T11:37:15;2.05;;;1.85;;
37931;SDS011;23758;42.640;23.302;2023-05-19T11:39:40;2.05;;;1.83;;
37931;SDS011;23758;42.640;23.302;2023-05-19T11:42:09;1.60;;;1.50;;
37931;SDS011;23758;42.640;23.302;2023-05-19T11:44:35;1.63;;;1.52;;
37931;SDS011;23758;42.640;23.302;2023-05-19T11:47:02;2.00;;;1.90;;
37931;SDS011;23758;42.640;23.302;2023-05-19T11:49:28;1.95;;;1.85;;
37931;SDS011;23758;42.640;23.302;2023-05-19T11:51:54;2.00;;;1.90;;
37931;SDS011;23758;42.640;23.302;2023-05-19T11:54:20;2.50;;;2.30;;
37931;SDS011;23758;42.640;23.302;2023-05-19T11:56:45;2.40;;;2.28;;
37931;SDS011;23758;42.640;23.302;2023-05-19T11:59:11;3.33;;;3.13;;
37931;SDS011;23758;42.640;23.302;2023-05-19T12:01:37;2.60;;;2.42;;
37931;SDS011;23758;42.640;23.302;2023-05-19T12:04:08;4.05;;;2.90;;
37931;SDS011;23758;42.640;23.302;2023-05-19T12:06:34;3.43;;;3.23;;
37931;SDS011;23758;42.640;23.302;2023-05-19T12:09:00;3.05;;;2.70;;
37931;SDS011;23758;42.640;23.302;2023-05-19T12:11:27;2.83;;;2.63;;
37931;SDS011;23758;42.640;23.302;2023-05-19T12:14:01;3.05;;;2.85;;
37931;SDS011;23758;42.640;23.302;2023-05-19T12:16:33;2.30;;;2.20;;
37931;SDS011;23758;42.640;23.302;2023-05-19T12:18:59;2.50;;;2.40;;
37931;SDS011;23758;42.640;23.302;2023-05-19T12:21:25;2.78;;;2.58;;
37931;SDS011;23758;42.640;23.302;2023-05-19T12:23:51;2.72;;;2.53;;
37931;SDS011;23758;42.640;23.302;2023-05-19T12:26:16;3.15;;;2.95;;
37931;SDS011;23758;42.640;23.302;2023-05-19T12:28:44;2.33;;;2.22;;
37931;SDS011;23758;42.640;23.302;2023-05-19T12:31:10;2.40;;;2.30;;
37931;SDS011;23758;42.640;23.302;2023-05-19T12:33:35;2.70;;;2.50;;
37931;SDS011;23758;42.640;23.302;2023-05-19T12:36:01;2.60;;;2.40;;
37931;SDS011;23758;42.640;23.302;2023-05-19T12:38:26;2.35;;;2.25;;
37931;SDS011;23758;42.640;23.302;2023-05-19T12:40:52;2.85;;;2.65;;
37931;SDS011;23758;42.640;23.302;2023-05-19T12:43:18;2.80;;;2.60;;
37931;SDS011;23758;42.640;23.302;2023-05-19T12:45:46;2.20;;;2.10;;
37931;SDS011;23758;42.640;23.302;2023-05-19T12:48:12;2.35;;;2.22;;
37931;SDS011;23758;42.640;23.302;2023-05-19T12:50:40;2.25;;;2.15;;
37931;SDS011;23758;42.640;23.302;2023-05-19T12:53:07;2.88;;;2.55;;
37931;SDS011;23758;42.640;23.302;2023-05-19T12:55:39;2.25;;;2.15;;
37931;SDS011;23758;42.640;23.302;2023-05-19T12:58:06;2.10;;;2.00;;
37931;SDS011;23758;42.640;23.302;2023-05-19T13:00:32;2.20;;;2.10;;
37931;SDS011;23758;42.640;23.302;2023-05-19T13:03:06;2.35;;;2.25;;
37931;SDS011;23758;42.640;23.302;2023-05-19T13:05:39;2.50;;;2.30;;
37931;SDS011;23758;42.640;23.302;2023-05-19T13:08:08;2.20;;;2.10;;
37931;SDS011;23758;42.640;23.302;2023-05-19T13:10:35;2.08;;;1.98;;
37931;SDS011;23758;42.640;23.302;2023-05-19T13:13:01;2.20;;;2.10;;
37931;SDS011;23758;42.640;23.302;2023-05-19T13:15:28;2.00;;;1.90;;
37931;SDS011;23758;42.640;23.302;2023-05-19T13:17:58;1.92;;;1.83;;
37931;SDS011;23758;42.640;23.302;2023-05-19T13:20:25;3.10;;;2.35;;
37931;SDS011;23758;42.640;23.302;2023-05-19T13:22:50;1.92;;;1.83;;
37931;SDS011;23758;42.640;23.302;2023-05-19T13:25:16;2.20;;;2.10;;
37931;SDS011;23758;42.640;23.302;2023-05-19T13:27:42;2.38;;;2.17;;
37931;SDS011;23758;42.640;23.302;2023-05-19T13:30:09;2.10;;;2.00;;
37931;SDS011;23758;42.640;23.302;2023-05-19T13:32:35;2.30;;;2.20;;
37931;SDS011;23758;42.640;23.302;2023-05-19T13:35:01;2.25;;;2.15;;
37931;SDS011;23758;42.640;23.302;2023-05-19T13:37:26;2.10;;;2.00;;
37931;SDS011;23758;42.640;23.302;2023-05-19T13:39:52;2.00;;;1.90;;
37931;SDS011;23758;42.640;23.302;2023-05-19T13:42:18;2.20;;;2.10;;
37931;SDS011;23758;42.640;23.302;2023-05-19T13:44:44;2.13;;;2.03;;
37931;SDS011;23758;42.640;23.302;2023-05-19T13:47:10;2.05;;;1.95;;
37931;SDS011;23758;42.640;23.302;2023-05-19T13:49:35;3.05;;;2.45;;
37931;SDS011;23758;42.640;23.302;2023-05-19T13:52:01;2.10;;;2.00;;
37931;SDS011;23758;42.640;23.302;2023-05-19T13:54:26;2.28;;;2.17;;
37931;SDS011;23758;42.640;23.302;2023-05-19T13:56:52;2.10;;;2.00;;
37931;SDS011;23758;42.640;23.302;2023-05-19T13:59:17;3.47;;;2.55;;
37931;SDS011;23758;42.640;23.302;2023-05-19T14:01:43;2.20;;;2.10;;
37931;SDS011;23758;42.640;23.302;2023-05-19T14:04:09;2.10;;;2.00;;
37931;SDS011;23758;42.640;23.302;2023-05-19T14:06:34;2.45;;;2.33;;
37931;SDS011;23758;42.640;23.302;2023-05-19T14:09:02;2.10;;;2.00;;
37931;SDS011;23758;42.640;23.302;2023-05-19T14:11:28;2.30;;;2.20;;
37931;SDS011;23758;42.640;23.302;2023-05-19T14:13:53;2.50;;;2.30;;
37931;SDS011;23758;42.640;23.302;2023-05-19T14:16:19;2.63;;;2.42;;
37931;SDS011;23758;42.640;23.302;2023-05-19T14:18:46;2.30;;;2.20;;
37931;SDS011;23758;42.640;23.302;2023-05-19T14:21:11;2.13;;;2.03;;
37931;SDS011;23758;42.640;23.302;2023-05-19T14:23:37;2.13;;;2.03;;
37931;SDS011;23758;42.640;23.302;2023-05-19T14:26:02;2.30;;;2.20;;
37931;SDS011;23758;42.640;23.302;2023-05-19T14:28:28;2.60;;;2.40;;
37931;SDS011;23758;42.640;23.302;2023-05-19T14:30:53;2.08;;;1.98;;
37931;SDS011;23758;42.640;23.302;2023-05-19T14:33:19;2.40;;;2.30;;
37931;SDS011;23758;42.640;23.302;2023-05-19T14:35:45;2.30;;;2.20;;
37931;SDS011;23758;42.640;23.302;2023-05-19T14:38:11;2.30;;;2.20;;
37931;SDS011;23758;42.640;23.302;2023-05-19T14:40:36;2.00;;;1.90;;
37931;SDS011;23758;42.640;23.302;2023-05-19T14:43:05;1.90;;;1.80;;
37931;SDS011;23758;42.640;23.302;2023-05-19T14:45:30;2.03;;;1.92;;
37931;SDS011;23758;42.640;23.302;2023-05-19T14:47:56;2.25;;;2.13;;
37931;SDS011;23758;42.640;23.302;2023-05-19T14:50:21;1.92;;;1.83;;
37931;SDS011;23758;42.640;23.302;2023-05-19T14:52:47;2.08;;;1.95;;
37931;SDS011;23758;42.640;23.302;2023-05-19T14:55:12;1.90;;;1.80;;
37931;SDS011;23758;42.640;23.302;2023-05-19T14:57:38;2.00;;;1.90;;
37931;SDS011;23758;42.640;23.302;2023-05-19T15:00:03;2.10;;;2.00;;
37931;SDS011;23758;42.640;23.302;2023-05-19T15:02:30;2.25;;;2.15;;
37931;SDS011;23758;42.640;23.302;2023-05-19T15:04:56;1.90;;;1.80;;
37931;SDS011;23758;42.640;23.302;2023-05-19T15:07:21;1.90;;;1.80;;